sensor_id;sensor_type;location;lat;lon;timestamp;temperature;humidity
12254;DHT22;6189;52.526;13.390;2023-07-31T00:01:01;18.60;99.90
12254;DHT22;6189;52.526;13.390;2023-07-31T00:03:49;18.50;99.90
12254;DHT22;6189;52.526;13.390;2023-07-31T00:06:37;18.20;99.90
12254;DHT22;6189;52.526;13.390;2023-07-31T00:09:24;18.00;99.90
12254;DHT22;6189;52.526;13.390;2023-07-31T00:12:11;17.90;99.90
12254;DHT22;6189;52.526;13.390;2023-07-31T00:14:58;18.10;99.90
12254;DHT22;6189;52.526;13.390;2023-07-31T00:17:45;18.30;99.90
12254;DHT22;6189;52.526;13.390;2023-07-31T00:20:33;18.30;99.90
12254;DHT22;6189;52.526;13.390;2023-07-31T00:23:21;18.50;99.90
12254;DHT22;6189;52.526;13.390;2023-07-31T00:26:08;18.50;99.90
12254;DHT22;6189;52.526;13.390;2023-07-31T00:28:55;18.40;99.90
12254;DHT22;6189;52.526;13.390;2023-07-31T00:31:42;18.10;99.90
12254;DHT22;6189;52.526;13.390;2023-07-31T00:34:31;17.70;99.90
12254;DHT22;6189;52.526;13.390;2023-07-31T00:37:19;17.70;99.90
12254;DHT22;6189;52.526;13.390;2023-07-31T00:40:07;17.70;99.90
12254;DHT22;6189;52.526;13.390;2023-07-31T00:42:54;17.80;99.90
12254;DHT22;6189;52.526;13.390;2023-07-31T00:45:41;18.00;99.90
12254;DHT22;6189;52.526;13.390;2023-07-31T00:48:28;18.10;99.90
12254;DHT22;6189;52.526;13.390;2023-07-31T00:51:15;18.00;99.90
12254;DHT22;6189;52.526;13.390;2023-07-31T00:54:04;18.10;99.90
12254;DHT22;6189;52.526;13.390;2023-07-31T00:56:52;17.80;99.90
12254;DHT22;6189;52.526;13.390;2023-07-31T00:59:39;17.60;99.90
12254;DHT22;6189;52.526;13.390;2023-07-31T01:02:27;17.70;99.90
12254;DHT22;6189;52.526;13.390;2023-07-31T01:05:15;17.50;99.90
12254;DHT22;6189;52.526;13.390;2023-07-31T01:08:04;17.70;99.90
12254;DHT22;6189;52.526;13.390;2023-07-31T01:10:58;17.70;99.90
12254;DHT22;6189;52.526;13.390;2023-07-31T01:13:47;17.70;99.90
12254;DHT22;6189;52.526;13.390;2023-07-31T01:16:34;17.50;99.90
12254;DHT22;6189;52.526;13.390;2023-07-31T01:19:21;17.40;99.90
12254;DHT22;6189;52.526;13.390;2023-07-31T01:22:16;17.30;99.90
12254;DHT22;6189;52.526;13.390;2023-07-31T01:25:14;17.30;99.90
12254;DHT22;6189;52.526;13.390;2023-07-31T01:28:05;17.40;99.90
12254;DHT22;6189;52.526;13.390;2023-07-31T01:30:54;17.30;99.90
12254;DHT22;6189;52.526;13.390;2023-07-31T01:33:42;17.50;99.90
12254;DHT22;6189;52.526;13.390;2023-07-31T01:36:30;17.70;99.90
12254;DHT22;6189;52.526;13.390;2023-07-31T01:39:17;17.80;99.90
12254;DHT22;6189;52.526;13.390;2023-07-31T01:42:07;17.90;99.90
12254;DHT22;6189;52.526;13.390;2023-07-31T01:44:55;18.00;99.90
12254;DHT22;6189;52.526;13.390;2023-07-31T01:47:43;18.10;99.90
12254;DHT22;6189;52.526;13.390;2023-07-31T01:50:30;18.20;99.90
12254;DHT22;6189;52.526;13.390;2023-07-31T01:53:17;18.00;99.90
12254;DHT22;6189;52.526;13.390;2023-07-31T01:56:04;18.10;99.90
12254;DHT22;6189;52.526;13.390;2023-07-31T01:58:51;18.20;99.90
12254;DHT22;6189;52.526;13.390;2023-07-31T02:01:39;18.30;99.90
12254;DHT22;6189;52.526;13.390;2023-07-31T02:04:26;18.40;99.90
12254;DHT22;6189;52.526;13.390;2023-07-31T02:07:13;18.40;99.90
12254;DHT22;6189;52.526;13.390;2023-07-31T02:10:00;18.40;99.90
12254;DHT22;6189;52.526;13.390;2023-07-31T02:12:47;18.40;99.90
12254;DHT22;6189;52.526;13.390;2023-07-31T02:15:35;18.40;99.90
12254;DHT22;6189;52.526;13.390;2023-07-31T02:18:23;18.50;99.90
12254;DHT22;6189;52.526;13.390;2023-07-31T02:21:10;18.20;99.90
12254;DHT22;6189;52.526;13.390;2023-07-31T02:23:57;18.10;99.90
12254;DHT22;6189;52.526;13.390;2023-07-31T02:26:44;18.30;99.90
12254;DHT22;6189;52.526;13.390;2023-07-31T02:29:31;18.30;99.90
12254;DHT22;6189;52.526;13.390;2023-07-31T02:32:19;18.30;99.90
12254;DHT22;6189;52.526;13.390;2023-07-31T02:35:08;18.40;99.90
12254;DHT22;6189;52.526;13.390;2023-07-31T02:37:55;18.50;99.90
12254;DHT22;6189;52.526;13.390;2023-07-31T02:40:42;18.50;99.90
12254;DHT22;6189;52.526;13.390;2023-07-31T02:43:29;18.50;99.90
12254;DHT22;6189;52.526;13.390;2023-07-31T02:46:16;18.30;99.90
12254;DHT22;6189;52.526;13.390;2023-07-31T02:49:03;18.30;99.90
12254;DHT22;6189;52.526;13.390;2023-07-31T02:51:52;18.40;99.90
12254;DHT22;6189;52.526;13.390;2023-07-31T02:54:39;18.50;99.90
12254;DHT22;6189;52.526;13.390;2023-07-31T02:57:26;18.50;99.90
12254;DHT22;6189;52.526;13.390;2023-07-31T03:00:13;18.50;99.90
12254;DHT22;6189;52.526;13.390;2023-07-31T03:03:00;18.40;99.90
12254;DHT22;6189;52.526;13.390;2023-07-31T03:05:47;18.00;99.90
12254;DHT22;6189;52.526;13.390;2023-07-31T03:08:35;18.00;99.90
12254;DHT22;6189;52.526;13.390;2023-07-31T03:11:23;18.10;99.90
12254;DHT22;6189;52.526;13.390;2023-07-31T03:14:10;17.70;99.90
12254;DHT22;6189;52.526;13.390;2023-07-31T03:16:57;17.60;99.90
12254;DHT22;6189;52.526;13.390;2023-07-31T03:19:44;17.60;99.90
12254;DHT22;6189;52.526;13.390;2023-07-31T03:22:31;17.80;99.90
12254;DHT22;6189;52.526;13.390;2023-07-31T03:25:22;17.70;99.90
12254;DHT22;6189;52.526;13.390;2023-07-31T03:28:09;17.40;99.90
12254;DHT22;6189;52.526;13.390;2023-07-31T03:30:56;17.40;99.90
12254;DHT22;6189;52.526;13.390;2023-07-31T03:33:43;17.50;99.90
12254;DHT22;6189;52.526;13.390;2023-07-31T03:36:30;17.50;99.90
12254;DHT22;6189;52.526;13.390;2023-07-31T03:39:17;17.40;99.90
12254;DHT22;6189;52.526;13.390;2023-07-31T03:42:06;17.50;99.90
12254;DHT22;6189;52.526;13.390;2023-07-31T03:44:53;17.40;99.90
12254;DHT22;6189;52.526;13.390;2023-07-31T03:47:40;17.50;99.90
12254;DHT22;6189;52.526;13.390;2023-07-31T03:50:27;17.70;99.90
12254;DHT22;6189;52.526;13.390;2023-07-31T03:53:16;17.50;99.90
12254;DHT22;6189;52.526;13.390;2023-07-31T03:56:03;17.60;99.90
12254;DHT22;6189;52.526;13.390;2023-07-31T03:58:51;17.70;99.90
12254;DHT22;6189;52.526;13.390;2023-07-31T04:01:38;17.60;99.90
12254;DHT22;6189;52.526;13.390;2023-07-31T04:04:28;17.60;99.90
12254;DHT22;6189;52.526;13.390;2023-07-31T04:07:15;17.50;99.90
12254;DHT22;6189;52.526;13.390;2023-07-31T04:10:03;17.50;99.90
12254;DHT22;6189;52.526;13.390;2023-07-31T04:12:50;17.50;99.90
12254;DHT22;6189;52.526;13.390;2023-07-31T04:15:38;17.50;99.90
12254;DHT22;6189;52.526;13.390;2023-07-31T04:18:25;17.70;99.90
12254;DHT22;6189;52.526;13.390;2023-07-31T04:21:12;17.60;99.90
12254;DHT22;6189;52.526;13.390;2023-07-31T04:23:59;17.40;99.90
12254;DHT22;6189;52.526;13.390;2023-07-31T04:26:46;17.40;99.90
12254;DHT22;6189;52.526;13.390;2023-07-31T04:29:34;17.50;99.90
12254;DHT22;6189;52.526;13.390;2023-07-31T04:32:22;17.60;99.90
12254;DHT22;6189;52.526;13.390;2023-07-31T04:35:10;17.60;99.90
12254;DHT22;6189;52.526;13.390;2023-07-31T04:37:57;17.40;99.90
12254;DHT22;6189;52.526;13.390;2023-07-31T04:40:44;17.70;99.90
12254;DHT22;6189;52.526;13.390;2023-07-31T04:43:31;17.70;99.90
12254;DHT22;6189;52.526;13.390;2023-07-31T04:46:18;17.60;99.90
12254;DHT22;6189;52.526;13.390;2023-07-31T04:49:07;17.30;99.90
12254;DHT22;6189;52.526;13.390;2023-07-31T04:51:54;17.30;99.90
12254;DHT22;6189;52.526;13.390;2023-07-31T04:54:41;17.20;99.90
12254;DHT22;6189;52.526;13.390;2023-07-31T04:57:28;17.20;99.90
12254;DHT22;6189;52.526;13.390;2023-07-31T05:00:15;17.10;99.90
12254;DHT22;6189;52.526;13.390;2023-07-31T05:03:02;17.20;99.90
12254;DHT22;6189;52.526;13.390;2023-07-31T05:05:52;17.30;99.90
12254;DHT22;6189;52.526;13.390;2023-07-31T05:08:39;17.30;99.90
12254;DHT22;6189;52.526;13.390;2023-07-31T05:11:26;17.30;99.90
12254;DHT22;6189;52.526;13.390;2023-07-31T05:14:13;17.20;99.90
12254;DHT22;6189;52.526;13.390;2023-07-31T05:17:01;17.40;99.90
12254;DHT22;6189;52.526;13.390;2023-07-31T05:19:48;17.40;99.90
12254;DHT22;6189;52.526;13.390;2023-07-31T05:22:37;17.40;99.90
12254;DHT22;6189;52.526;13.390;2023-07-31T05:25:24;17.20;99.90
12254;DHT22;6189;52.526;13.390;2023-07-31T05:28:11;17.30;99.90
12254;DHT22;6189;52.526;13.390;2023-07-31T05:30:59;17.40;99.90
12254;DHT22;6189;52.526;13.390;2023-07-31T05:33:46;17.50;99.90
12254;DHT22;6189;52.526;13.390;2023-07-31T05:36:35;17.70;99.90
12254;DHT22;6189;52.526;13.390;2023-07-31T05:39:24;17.80;99.90
12254;DHT22;6189;52.526;13.390;2023-07-31T05:42:11;17.90;99.90
12254;DHT22;6189;52.526;13.390;2023-07-31T05:44:58;18.00;99.90
12254;DHT22;6189;52.526;13.390;2023-07-31T05:47:45;18.00;99.90
12254;DHT22;6189;52.526;13.390;2023-07-31T05:50:31;17.80;99.90
12254;DHT22;6189;52.526;13.390;2023-07-31T05:53:17;17.80;99.90
12254;DHT22;6189;52.526;13.390;2023-07-31T05:56:04;17.60;99.90
12254;DHT22;6189;52.526;13.390;2023-07-31T05:58:50;17.80;99.90
12254;DHT22;6189;52.526;13.390;2023-07-31T06:01:35;17.90;99.90
12254;DHT22;6189;52.526;13.390;2023-07-31T06:04:21;18.10;99.90
12254;DHT22;6189;52.526;13.390;2023-07-31T06:07:09;18.10;99.90
12254;DHT22;6189;52.526;13.390;2023-07-31T06:09:54;18.20;99.90
12254;DHT22;6189;52.526;13.390;2023-07-31T06:12:43;18.00;99.90
12254;DHT22;6189;52.526;13.390;2023-07-31T06:15:28;17.80;99.90
12254;DHT22;6189;52.526;13.390;2023-07-31T06:18:14;17.80;99.90
12254;DHT22;6189;52.526;13.390;2023-07-31T06:20:59;17.80;99.90
12254;DHT22;6189;52.526;13.390;2023-07-31T06:23:45;18.00;99.90
12254;DHT22;6189;52.526;13.390;2023-07-31T06:26:30;17.80;99.90
12254;DHT22;6189;52.526;13.390;2023-07-31T06:29:17;17.80;99.90
12254;DHT22;6189;52.526;13.390;2023-07-31T06:32:03;17.80;99.90
12254;DHT22;6189;52.526;13.390;2023-07-31T06:34:48;17.80;99.90
12254;DHT22;6189;52.526;13.390;2023-07-31T06:37:34;17.80;99.90
12254;DHT22;6189;52.526;13.390;2023-07-31T06:40:19;17.80;99.90
12254;DHT22;6189;52.526;13.390;2023-07-31T06:43:05;17.90;99.90
12254;DHT22;6189;52.526;13.390;2023-07-31T06:45:53;17.80;99.90
12254;DHT22;6189;52.526;13.390;2023-07-31T06:48:38;17.90;99.90
12254;DHT22;6189;52.526;13.390;2023-07-31T06:51:24;18.00;99.90
12254;DHT22;6189;52.526;13.390;2023-07-31T06:54:09;18.00;99.90
12254;DHT22;6189;52.526;13.390;2023-07-31T06:56:55;18.10;99.90
12254;DHT22;6189;52.526;13.390;2023-07-31T06:59:40;18.30;99.90
12254;DHT22;6189;52.526;13.390;2023-07-31T07:02:27;18.30;99.90
12254;DHT22;6189;52.526;13.390;2023-07-31T07:05:12;18.20;99.90
12254;DHT22;6189;52.526;13.390;2023-07-31T07:07:58;18.10;99.90
12254;DHT22;6189;52.526;13.390;2023-07-31T07:10:43;18.30;99.90
12254;DHT22;6189;52.526;13.390;2023-07-31T07:13:29;18.30;99.90
12254;DHT22;6189;52.526;13.390;2023-07-31T07:16:15;18.30;99.90
12254;DHT22;6189;52.526;13.390;2023-07-31T07:19:04;18.40;99.90
12254;DHT22;6189;52.526;13.390;2023-07-31T07:21:51;18.50;99.90
12254;DHT22;6189;52.526;13.390;2023-07-31T07:24:38;18.50;99.90
12254;DHT22;6189;52.526;13.390;2023-07-31T07:27:25;18.50;99.90
12254;DHT22;6189;52.526;13.390;2023-07-31T07:30:13;18.40;99.90
12254;DHT22;6189;52.526;13.390;2023-07-31T07:33:01;18.10;99.90
12254;DHT22;6189;52.526;13.390;2023-07-31T07:35:49;17.90;99.90
12254;DHT22;6189;52.526;13.390;2023-07-31T07:38:37;17.80;99.90
12254;DHT22;6189;52.526;13.390;2023-07-31T07:41:25;17.80;99.90
12254;DHT22;6189;52.526;13.390;2023-07-31T07:44:12;17.90;99.90
12254;DHT22;6189;52.526;13.390;2023-07-31T07:47:00;18.10;99.90
12254;DHT22;6189;52.526;13.390;2023-07-31T07:49:47;18.20;99.90
12254;DHT22;6189;52.526;13.390;2023-07-31T07:52:36;18.10;99.90
12254;DHT22;6189;52.526;13.390;2023-07-31T07:55:23;18.20;99.90
12254;DHT22;6189;52.526;13.390;2023-07-31T07:58:10;18.10;99.90
12254;DHT22;6189;52.526;13.390;2023-07-31T08:00:58;18.10;99.90
12254;DHT22;6189;52.526;13.390;2023-07-31T08:03:45;18.30;99.90
12254;DHT22;6189;52.526;13.390;2023-07-31T08:06:32;18.40;99.90
12254;DHT22;6189;52.526;13.390;2023-07-31T08:09:20;18.50;99.90
12254;DHT22;6189;52.526;13.390;2023-07-31T08:12:08;18.20;99.90
12254;DHT22;6189;52.526;13.390;2023-07-31T08:14:55;18.10;99.90
12254;DHT22;6189;52.526;13.390;2023-07-31T08:17:43;18.20;99.90
12254;DHT22;6189;52.526;13.390;2023-07-31T08:20:30;18.10;99.90
12254;DHT22;6189;52.526;13.390;2023-07-31T08:23:17;18.40;99.90
12254;DHT22;6189;52.526;13.390;2023-07-31T08:26:06;18.20;99.90
12254;DHT22;6189;52.526;13.390;2023-07-31T08:28:53;18.20;99.90
12254;DHT22;6189;52.526;13.390;2023-07-31T08:31:41;18.20;99.90
12254;DHT22;6189;52.526;13.390;2023-07-31T08:34:28;18.40;99.90
12254;DHT22;6189;52.526;13.390;2023-07-31T08:37:15;18.60;99.90
12254;DHT22;6189;52.526;13.390;2023-07-31T08:40:02;18.70;99.90
12254;DHT22;6189;52.526;13.390;2023-07-31T08:42:52;18.70;99.90
12254;DHT22;6189;52.526;13.390;2023-07-31T08:45:41;18.60;99.90
12254;DHT22;6189;52.526;13.390;2023-07-31T08:48:28;18.60;99.90
12254;DHT22;6189;52.526;13.390;2023-07-31T08:51:16;18.60;99.90
12254;DHT22;6189;52.526;13.390;2023-07-31T08:54:03;18.50;99.90
12254;DHT22;6189;52.526;13.390;2023-07-31T08:56:50;18.60;99.90
12254;DHT22;6189;52.526;13.390;2023-07-31T08:59:40;18.50;99.90
12254;DHT22;6189;52.526;13.390;2023-07-31T09:02:28;18.60;99.90
12254;DHT22;6189;52.526;13.390;2023-07-31T09:05:17;18.60;99.90
12254;DHT22;6189;52.526;13.390;2023-07-31T09:08:04;18.50;99.90
12254;DHT22;6189;52.526;13.390;2023-07-31T09:10:51;18.70;99.90
12254;DHT22;6189;52.526;13.390;2023-07-31T09:13:40;18.90;99.90
12254;DHT22;6189;52.526;13.390;2023-07-31T09:16:29;18.80;99.90
12254;DHT22;6189;52.526;13.390;2023-07-31T09:19:22;18.80;99.90
12254;DHT22;6189;52.526;13.390;2023-07-31T09:22:11;18.80;99.90
12254;DHT22;6189;52.526;13.390;2023-07-31T09:25:05;18.60;99.90
12254;DHT22;6189;52.526;13.390;2023-07-31T09:28:01;18.70;99.90
12254;DHT22;6189;52.526;13.390;2023-07-31T09:30:50;18.80;99.90
12254;DHT22;6189;52.526;13.390;2023-07-31T09:33:44;18.80;99.90
12254;DHT22;6189;52.526;13.390;2023-07-31T09:36:41;18.70;99.90
12254;DHT22;6189;52.526;13.390;2023-07-31T09:39:28;18.70;99.90
12254;DHT22;6189;52.526;13.390;2023-07-31T09:42:24;18.70;99.90
12254;DHT22;6189;52.526;13.390;2023-07-31T09:45:10;18.80;99.90
12254;DHT22;6189;52.526;13.390;2023-07-31T09:47:56;18.80;99.90
12254;DHT22;6189;52.526;13.390;2023-07-31T09:50:44;18.70;99.90
12254;DHT22;6189;52.526;13.390;2023-07-31T09:53:29;18.70;99.90
12254;DHT22;6189;52.526;13.390;2023-07-31T09:56:15;18.50;99.90
12254;DHT22;6189;52.526;13.390;2023-07-31T09:59:02;18.50;99.90
12254;DHT22;6189;52.526;13.390;2023-07-31T10:01:50;18.60;99.90
12254;DHT22;6189;52.526;13.390;2023-07-31T10:04:36;18.60;99.90
12254;DHT22;6189;52.526;13.390;2023-07-31T10:07:24;18.50;99.90
12254;DHT22;6189;52.526;13.390;2023-07-31T10:10:10;18.50;99.90
12254;DHT22;6189;52.526;13.390;2023-07-31T10:12:57;18.40;99.90
12254;DHT22;6189;52.526;13.390;2023-07-31T10:15:43;18.50;99.90
12254;DHT22;6189;52.526;13.390;2023-07-31T10:18:28;18.60;99.90
12254;DHT22;6189;52.526;13.390;2023-07-31T10:21:15;18.70;99.90
12254;DHT22;6189;52.526;13.390;2023-07-31T10:24:06;18.70;99.90
12254;DHT22;6189;52.526;13.390;2023-07-31T10:26:52;18.60;99.90
12254;DHT22;6189;52.526;13.390;2023-07-31T10:29:39;18.50;99.90
12254;DHT22;6189;52.526;13.390;2023-07-31T10:32:25;18.60;99.90
12254;DHT22;6189;52.526;13.390;2023-07-31T10:35:11;18.50;99.90
12254;DHT22;6189;52.526;13.390;2023-07-31T10:38:03;18.70;99.90
12254;DHT22;6189;52.526;13.390;2023-07-31T10:40:55;18.80;99.90
12254;DHT22;6189;52.526;13.390;2023-07-31T10:43:54;18.90;99.90
12254;DHT22;6189;52.526;13.390;2023-07-31T10:46:39;18.90;99.90
12254;DHT22;6189;52.526;13.390;2023-07-31T10:49:24;18.90;99.90
12254;DHT22;6189;52.526;13.390;2023-07-31T10:52:19;18.90;99.90
12254;DHT22;6189;52.526;13.390;2023-07-31T10:55:14;19.00;99.90
12254;DHT22;6189;52.526;13.390;2023-07-31T10:58:06;19.10;99.90
12254;DHT22;6189;52.526;13.390;2023-07-31T11:00:55;19.30;99.90
12254;DHT22;6189;52.526;13.390;2023-07-31T11:03:41;19.40;99.90
12254;DHT22;6189;52.526;13.390;2023-07-31T11:06:29;19.40;99.90
12254;DHT22;6189;52.526;13.390;2023-07-31T11:09:14;19.50;99.90
12254;DHT22;6189;52.526;13.390;2023-07-31T11:12:00;19.60;99.90
12254;DHT22;6189;52.526;13.390;2023-07-31T11:14:50;19.70;99.90
12254;DHT22;6189;52.526;13.390;2023-07-31T11:17:38;19.80;99.90
12254;DHT22;6189;52.526;13.390;2023-07-31T11:20:24;19.80;99.90
12254;DHT22;6189;52.526;13.390;2023-07-31T11:23:10;19.90;99.90
12254;DHT22;6189;52.526;13.390;2023-07-31T11:25:59;19.90;99.90
12254;DHT22;6189;52.526;13.390;2023-07-31T11:28:46;20.00;99.90
12254;DHT22;6189;52.526;13.390;2023-07-31T11:31:33;20.10;99.90
12254;DHT22;6189;52.526;13.390;2023-07-31T11:34:24;20.00;99.90
12254;DHT22;6189;52.526;13.390;2023-07-31T11:37:09;20.10;99.90
12254;DHT22;6189;52.526;13.390;2023-07-31T11:39:58;20.10;99.90
12254;DHT22;6189;52.526;13.390;2023-07-31T11:42:44;20.10;99.90
12254;DHT22;6189;52.526;13.390;2023-07-31T11:45:30;20.10;99.90
12254;DHT22;6189;52.526;13.390;2023-07-31T11:48:21;20.10;99.90
12254;DHT22;6189;52.526;13.390;2023-07-31T11:51:08;20.10;99.90
12254;DHT22;6189;52.526;13.390;2023-07-31T11:53:55;20.10;99.90
12254;DHT22;6189;52.526;13.390;2023-07-31T11:56:41;20.10;99.90
12254;DHT22;6189;52.526;13.390;2023-07-31T11:59:26;20.20;99.90
12254;DHT22;6189;52.526;13.390;2023-07-31T12:02:13;20.10;99.90
12254;DHT22;6189;52.526;13.390;2023-07-31T12:05:00;20.10;99.90
12254;DHT22;6189;52.526;13.390;2023-07-31T12:07:49;20.20;99.90
12254;DHT22;6189;52.526;13.390;2023-07-31T12:10:35;20.20;99.90
12254;DHT22;6189;52.526;13.390;2023-07-31T12:13:20;20.20;99.90
12254;DHT22;6189;52.526;13.390;2023-07-31T12:16:06;20.20;99.90
12254;DHT22;6189;52.526;13.390;2023-07-31T12:18:52;20.20;99.90
12254;DHT22;6189;52.526;13.390;2023-07-31T12:21:40;20.20;99.90
12254;DHT22;6189;52.526;13.390;2023-07-31T12:24:25;20.20;99.90
12254;DHT22;6189;52.526;13.390;2023-07-31T12:27:11;20.20;99.90
12254;DHT22;6189;52.526;13.390;2023-07-31T12:30:02;20.40;99.90
12254;DHT22;6189;52.526;13.390;2023-07-31T12:32:48;20.40;99.90
12254;DHT22;6189;52.526;13.390;2023-07-31T12:35:37;20.30;99.90
12254;DHT22;6189;52.526;13.390;2023-07-31T12:38:25;20.30;99.90
12254;DHT22;6189;52.526;13.390;2023-07-31T12:41:10;20.40;99.90
12254;DHT22;6189;52.526;13.390;2023-07-31T12:43:56;20.40;99.90
12254;DHT22;6189;52.526;13.390;2023-07-31T12:46:42;20.50;99.90
12254;DHT22;6189;52.526;13.390;2023-07-31T12:49:27;20.60;99.90
12254;DHT22;6189;52.526;13.390;2023-07-31T12:52:12;20.70;99.90
12254;DHT22;6189;52.526;13.390;2023-07-31T12:55:02;20.70;99.90
12254;DHT22;6189;52.526;13.390;2023-07-31T12:57:50;20.70;99.90
12254;DHT22;6189;52.526;13.390;2023-07-31T13:00:35;20.70;99.90
12254;DHT22;6189;52.526;13.390;2023-07-31T13:03:21;20.70;99.90
12254;DHT22;6189;52.526;13.390;2023-07-31T13:06:07;20.70;99.90
12254;DHT22;6189;52.526;13.390;2023-07-31T13:08:53;20.70;99.90
12254;DHT22;6189;52.526;13.390;2023-07-31T13:11:40;20.70;99.90
12254;DHT22;6189;52.526;13.390;2023-07-31T13:14:26;20.60;99.90
12254;DHT22;6189;52.526;13.390;2023-07-31T13:17:12;20.60;99.90
12254;DHT22;6189;52.526;13.390;2023-07-31T13:19:58;20.50;99.90
12254;DHT22;6189;52.526;13.390;2023-07-31T13:22:44;20.60;99.90
12254;DHT22;6189;52.526;13.390;2023-07-31T13:25:29;20.60;99.90
12254;DHT22;6189;52.526;13.390;2023-07-31T13:28:16;20.70;99.90
12254;DHT22;6189;52.526;13.390;2023-07-31T13:31:02;20.70;99.90
12254;DHT22;6189;52.526;13.390;2023-07-31T13:33:47;20.70;99.90
12254;DHT22;6189;52.526;13.390;2023-07-31T13:36:33;20.70;99.90
12254;DHT22;6189;52.526;13.390;2023-07-31T13:39:20;20.70;99.90
12254;DHT22;6189;52.526;13.390;2023-07-31T13:42:06;20.70;99.90
12254;DHT22;6189;52.526;13.390;2023-07-31T13:44:56;20.70;99.90
12254;DHT22;6189;52.526;13.390;2023-07-31T13:47:41;20.80;99.90
12254;DHT22;6189;52.526;13.390;2023-07-31T13:50:26;20.80;99.90
12254;DHT22;6189;52.526;13.390;2023-07-31T13:53:12;20.80;99.90
12254;DHT22;6189;52.526;13.390;2023-07-31T13:55:58;20.90;99.90
12254;DHT22;6189;52.526;13.390;2023-07-31T13:58:43;21.00;99.90
12254;DHT22;6189;52.526;13.390;2023-07-31T14:01:31;21.00;99.90
12254;DHT22;6189;52.526;13.390;2023-07-31T14:04:16;21.00;99.90
12254;DHT22;6189;52.526;13.390;2023-07-31T14:07:03;21.00;99.90
12254;DHT22;6189;52.526;13.390;2023-07-31T14:09:49;21.10;99.90
12254;DHT22;6189;52.526;13.390;2023-07-31T14:12:34;21.10;99.90
12254;DHT22;6189;52.526;13.390;2023-07-31T14:15:19;21.00;99.90
12254;DHT22;6189;52.526;13.390;2023-07-31T14:18:06;21.00;99.90
12254;DHT22;6189;52.526;13.390;2023-07-31T14:20:52;21.10;99.90
12254;DHT22;6189;52.526;13.390;2023-07-31T14:23:38;21.10;99.90
12254;DHT22;6189;52.526;13.390;2023-07-31T14:26:25;21.10;99.90
12254;DHT22;6189;52.526;13.390;2023-07-31T14:29:10;21.10;99.90
12254;DHT22;6189;52.526;13.390;2023-07-31T14:31:56;21.10;99.90
12254;DHT22;6189;52.526;13.390;2023-07-31T14:34:43;21.10;99.90
12254;DHT22;6189;52.526;13.390;2023-07-31T14:37:36;21.10;99.90
12254;DHT22;6189;52.526;13.390;2023-07-31T14:40:21;21.20;99.90
12254;DHT22;6189;52.526;13.390;2023-07-31T14:43:07;21.20;99.90
12254;DHT22;6189;52.526;13.390;2023-07-31T14:45:53;21.20;99.90
12254;DHT22;6189;52.526;13.390;2023-07-31T14:48:40;21.20;99.90
12254;DHT22;6189;52.526;13.390;2023-07-31T14:51:27;21.20;99.90
12254;DHT22;6189;52.526;13.390;2023-07-31T14:54:13;21.30;99.90
12254;DHT22;6189;52.526;13.390;2023-07-31T14:56:59;21.30;99.90
12254;DHT22;6189;52.526;13.390;2023-07-31T14:59:44;21.30;99.90
12254;DHT22;6189;52.526;13.390;2023-07-31T15:02:30;21.30;99.90
12254;DHT22;6189;52.526;13.390;2023-07-31T15:05:16;21.30;99.90
12254;DHT22;6189;52.526;13.390;2023-07-31T15:08:03;21.30;99.90
12254;DHT22;6189;52.526;13.390;2023-07-31T15:10:49;21.30;99.90
12254;DHT22;6189;52.526;13.390;2023-07-31T15:13:42;21.30;99.90
12254;DHT22;6189;52.526;13.390;2023-07-31T15:16:28;21.20;99.90
12254;DHT22;6189;52.526;13.390;2023-07-31T15:19:15;21.30;99.90
12254;DHT22;6189;52.526;13.390;2023-07-31T15:22:00;21.30;99.90
12254;DHT22;6189;52.526;13.390;2023-07-31T15:24:47;21.20;99.90
12254;DHT22;6189;52.526;13.390;2023-07-31T15:27:33;21.30;99.90
12254;DHT22;6189;52.526;13.390;2023-07-31T15:30:19;21.30;99.90
12254;DHT22;6189;52.526;13.390;2023-07-31T15:33:04;21.30;99.90
12254;DHT22;6189;52.526;13.390;2023-07-31T15:35:49;21.30;99.90
12254;DHT22;6189;52.526;13.390;2023-07-31T15:38:37;21.30;99.90
12254;DHT22;6189;52.526;13.390;2023-07-31T15:41:24;21.30;99.90
12254;DHT22;6189;52.526;13.390;2023-07-31T15:44:11;21.30;99.90
12254;DHT22;6189;52.526;13.390;2023-07-31T15:46:56;21.20;99.90
12254;DHT22;6189;52.526;13.390;2023-07-31T15:49:42;21.30;99.90
12254;DHT22;6189;52.526;13.390;2023-07-31T15:52:27;21.20;99.90
12254;DHT22;6189;52.526;13.390;2023-07-31T15:55:13;21.20;99.90
12254;DHT22;6189;52.526;13.390;2023-07-31T15:58:00;21.10;99.90
12254;DHT22;6189;52.526;13.390;2023-07-31T16:00:46;21.10;99.90
12254;DHT22;6189;52.526;13.390;2023-07-31T16:03:31;21.10;99.90
12254;DHT22;6189;52.526;13.390;2023-07-31T16:06:17;21.10;99.90
12254;DHT22;6189;52.526;13.390;2023-07-31T16:09:03;21.10;99.90
12254;DHT22;6189;52.526;13.390;2023-07-31T16:11:48;21.10;99.90
12254;DHT22;6189;52.526;13.390;2023-07-31T16:14:35;21.10;99.90
12254;DHT22;6189;52.526;13.390;2023-07-31T16:17:20;21.10;99.90
12254;DHT22;6189;52.526;13.390;2023-07-31T16:20:07;21.10;99.90
12254;DHT22;6189;52.526;13.390;2023-07-31T16:22:53;21.20;99.90
12254;DHT22;6189;52.526;13.390;2023-07-31T16:25:39;21.20;99.90
12254;DHT22;6189;52.526;13.390;2023-07-31T16:28:24;21.30;99.90
12254;DHT22;6189;52.526;13.390;2023-07-31T16:31:10;21.20;99.90
12254;DHT22;6189;52.526;13.390;2023-07-31T16:33:56;21.20;99.90
12254;DHT22;6189;52.526;13.390;2023-07-31T16:36:42;21.20;99.90
12254;DHT22;6189;52.526;13.390;2023-07-31T16:39:27;21.20;99.90
12254;DHT22;6189;52.526;13.390;2023-07-31T16:42:18;21.20;99.90
12254;DHT22;6189;52.526;13.390;2023-07-31T16:45:05;21.30;99.90
12254;DHT22;6189;52.526;13.390;2023-07-31T16:47:52;21.30;99.90
12254;DHT22;6189;52.526;13.390;2023-07-31T16:50:37;21.20;99.90
12254;DHT22;6189;52.526;13.390;2023-07-31T16:53:23;21.30;99.90
12254;DHT22;6189;52.526;13.390;2023-07-31T16:56:09;21.20;99.90
12254;DHT22;6189;52.526;13.390;2023-07-31T16:58:55;21.30;99.90
12254;DHT22;6189;52.526;13.390;2023-07-31T17:01:41;21.20;99.90
12254;DHT22;6189;52.526;13.390;2023-07-31T17:04:28;21.20;99.90
12254;DHT22;6189;52.526;13.390;2023-07-31T17:07:15;21.20;99.90
12254;DHT22;6189;52.526;13.390;2023-07-31T17:10:01;21.20;99.90
12254;DHT22;6189;52.526;13.390;2023-07-31T17:12:46;21.20;99.90
12254;DHT22;6189;52.526;13.390;2023-07-31T17:15:32;21.20;99.90
12254;DHT22;6189;52.526;13.390;2023-07-31T17:18:17;21.30;99.90
12254;DHT22;6189;52.526;13.390;2023-07-31T17:21:07;21.30;99.90
12254;DHT22;6189;52.526;13.390;2023-07-31T17:23:53;21.30;99.90
12254;DHT22;6189;52.526;13.390;2023-07-31T17:26:39;21.30;99.90
12254;DHT22;6189;52.526;13.390;2023-07-31T17:29:27;21.30;99.90
12254;DHT22;6189;52.526;13.390;2023-07-31T17:32:13;21.40;99.90
12254;DHT22;6189;52.526;13.390;2023-07-31T17:34:59;21.40;99.90